SA28 SABE-SAEZ
Flight info
| Callsign | SA28 |
|---|---|
| Flight time | N/A |
| Altitude | 5000 |
| Route | PAL9 PAL ARSOT |
| Aircraft | BE58/L-SFG/1200 |
Departure
| Time | 2026-05-07 23:36 |
|---|---|
| Airport | Aeroparque Jorge Newbery (SABE) |
Arrival
| Time | N/A |
|---|---|
| Airport | Ezeiza International Airport - Ministro Pistarini (SAEZ) |
| Time | Latitude | Longitude | Altitude | Speed | Heading |
|---|---|---|---|---|---|
| 2026-05-07 23:04 | -34.55466 | -58.41746 | 21 ft | 0 kts | 9° |
| 2026-05-07 23:22 | -34.55468 | -58.41746 | 21 ft | 1 kts | 9° |
| 2026-05-07 23:22 | -34.55480 | -58.41748 | 21 ft | 2 kts | 9° |
| 2026-05-07 23:23 | -34.55499 | -58.41752 | 21 ft | 3 kts | 9° |
| 2026-05-07 23:23 | -34.55519 | -58.41756 | 21 ft | 3 kts | 9° |
| 2026-05-07 23:23 | -34.55539 | -58.41759 | 21 ft | 3 kts | 9° |
| 2026-05-07 23:23 | -34.55550 | -58.41762 | 21 ft | 1 kts | 11° |
| 2026-05-07 23:24 | -34.55555 | -58.41763 | 21 ft | 0 kts | 11° |
| 2026-05-07 23:24 | -34.55550 | -58.41759 | 21 ft | 3 kts | 52° |
| 2026-05-07 23:24 | -34.55551 | -58.41750 | 21 ft | 0 kts | 131° |
| 2026-05-07 23:26 | -34.55554 | -58.41747 | 21 ft | 1 kts | 153° |
| 2026-05-07 23:26 | -34.55559 | -58.41745 | 21 ft | 4 kts | 166° |
| 2026-05-07 23:26 | -34.55624 | -58.41782 | 21 ft | 14 kts | 209° |
| 2026-05-07 23:26 | -34.55652 | -58.41793 | 21 ft | 4 kts | 141° |
| 2026-05-07 23:27 | -34.55727 | -58.41615 | 21 ft | 18 kts | 115° |
| 2026-05-07 23:27 | -34.55788 | -58.41475 | 21 ft | 14 kts | 117° |
| 2026-05-07 23:27 | -34.55856 | -58.41363 | 21 ft | 17 kts | 127° |
| 2026-05-07 23:28 | -34.55924 | -58.41260 | 21 ft | 14 kts | 128° |
| 2026-05-07 23:28 | -34.55979 | -58.41178 | 21 ft | 11 kts | 127° |
| 2026-05-07 23:28 | -34.56022 | -58.41111 | 21 ft | 9 kts | 128° |
| 2026-05-07 23:28 | -34.56056 | -58.41057 | 21 ft | 8 kts | 129° |
| 2026-05-07 23:29 | -34.56091 | -58.41000 | 21 ft | 9 kts | 127° |
| 2026-05-07 23:29 | -34.56131 | -58.40936 | 21 ft | 10 kts | 128° |
| 2026-05-07 23:29 | -34.56177 | -58.40868 | 21 ft | 11 kts | 129° |
| 2026-05-07 23:29 | -34.56223 | -58.40793 | 21 ft | 11 kts | 126° |
| 2026-05-07 23:30 | -34.56265 | -58.40725 | 21 ft | 7 kts | 130° |
| 2026-05-07 23:30 | -34.56302 | -58.40682 | 21 ft | 8 kts | 150° |
| 2026-05-07 23:30 | -34.56325 | -58.40672 | 21 ft | 0 kts | 171° |
| 2026-05-07 23:34 | -34.56353 | -58.40667 | 21 ft | 10 kts | 171° |
| 2026-05-07 23:34 | -34.56430 | -58.40654 | 21 ft | 7 kts | 216° |
| 2026-05-07 23:35 | -34.56432 | -58.40669 | 21 ft | 0 kts | 307° |
| 2026-05-07 23:35 | -34.56354 | -58.40805 | 21 ft | 53 kts | 304° |
| 2026-05-07 23:35 | -34.56036 | -58.41374 | 22 ft | 105 kts | 304° |
| 2026-05-07 23:36 | -34.55594 | -58.42174 | 198 ft | 120 kts | 304° |
| 2026-05-07 23:36 | -34.55110 | -58.43032 | 401 ft | 128 kts | 305° |
| 2026-05-07 23:36 | -34.54595 | -58.43937 | 614 ft | 132 kts | 304° |
| 2026-05-07 23:36 | -34.54056 | -58.44875 | 825 ft | 136 kts | 305° |
| 2026-05-07 23:37 | -34.53509 | -58.45822 | 1038 ft | 143 kts | 305° |
| 2026-05-07 23:37 | -34.53446 | -58.45932 | 1068 ft | 144 kts | 305° |
| 2026-05-07 23:37 | -34.52965 | -58.46765 | 1288 ft | 149 kts | 305° |
| 2026-05-07 23:37 | -34.52366 | -58.47804 | 1585 ft | 151 kts | 305° |
| 2026-05-07 23:38 | -34.51760 | -58.48854 | 1912 ft | 150 kts | 305° |
| 2026-05-07 23:38 | -34.51164 | -58.49886 | 2234 ft | 149 kts | 305° |
| 2026-05-07 23:38 | -34.50573 | -58.50910 | 2555 ft | 148 kts | 305° |
| 2026-05-07 23:38 | -34.49985 | -58.51928 | 2876 ft | 146 kts | 305° |
| 2026-05-07 23:39 | -34.49404 | -58.52934 | 3197 ft | 145 kts | 305° |
| 2026-05-07 23:39 | -34.48835 | -58.53920 | 3515 ft | 142 kts | 305° |
| 2026-05-07 23:39 | -34.48271 | -58.54909 | 3840 ft | 140 kts | 305° |
| 2026-05-07 23:39 | -34.47740 | -58.55854 | 4153 ft | 134 kts | 305° |
| 2026-05-07 23:40 | -34.47230 | -58.56774 | 4464 ft | 128 kts | 305° |
| 2026-05-07 23:40 | -34.46745 | -58.57652 | 4773 ft | 122 kts | 305° |
| 2026-05-07 23:40 | -34.46265 | -58.58515 | 4940 ft | 127 kts | 305° |
| 2026-05-07 23:40 | -34.45747 | -58.59434 | 5008 ft | 138 kts | 305° |
| 2026-05-07 23:41 | -34.45182 | -58.60433 | 5016 ft | 149 kts | 305° |
| 2026-05-07 23:41 | -34.44580 | -58.61492 | 5012 ft | 157 kts | 305° |
| 2026-05-07 23:41 | -34.43941 | -58.62615 | 5007 ft | 163 kts | 305° |
| 2026-05-07 23:41 | -34.43295 | -58.63750 | 5005 ft | 166 kts | 305° |
| 2026-05-07 23:42 | -34.42831 | -58.65039 | 4994 ft | 170 kts | 277° |
| 2026-05-07 23:42 | -34.43148 | -58.66403 | 5000 ft | 177 kts | 238° |
| 2026-05-07 23:42 | -34.44093 | -58.67394 | 5014 ft | 181 kts | 217° |
| 2026-05-07 23:42 | -34.45167 | -58.68195 | 5004 ft | 183 kts | 214° |
| 2026-05-07 23:43 | -34.46300 | -58.68908 | 5002 ft | 185 kts | 206° |
| 2026-05-07 23:43 | -34.46788 | -58.69143 | 5003 ft | 185 kts | 204° |
| 2026-05-07 23:43 | -34.47242 | -58.69342 | 5001 ft | 186 kts | 201° |
| 2026-05-07 23:43 | -34.48513 | -58.69616 | 5004 ft | 188 kts | 188° |
| 2026-05-07 23:44 | -34.49830 | -58.69725 | 5001 ft | 188 kts | 186° |
| 2026-05-07 23:44 | -34.51147 | -58.69804 | 5000 ft | 189 kts | 185° |
| 2026-05-07 23:44 | -34.52454 | -58.69838 | 5000 ft | 189 kts | 182° |
| 2026-05-07 23:44 | -34.53757 | -58.69825 | 4997 ft | 185 kts | 181° |
| 2026-05-07 23:45 | -34.55046 | -58.69794 | 4999 ft | 184 kts | 181° |
| 2026-05-07 23:45 | -34.56335 | -58.69759 | 5001 ft | 186 kts | 180° |
| 2026-05-07 23:45 | -34.57628 | -58.69629 | 5002 ft | 188 kts | 176° |
| 2026-05-07 23:45 | -34.58930 | -58.69447 | 5001 ft | 188 kts | 175° |
| 2026-05-07 23:46 | -34.60226 | -58.69257 | 5001 ft | 189 kts | 175° |
| 2026-05-07 23:46 | -34.61541 | -58.69063 | 5000 ft | 189 kts | 175° |
| 2026-05-07 23:46 | -34.62837 | -58.68872 | 5000 ft | 189 kts | 175° |
| 2026-05-07 23:46 | -34.64151 | -58.68679 | 5000 ft | 189 kts | 175° |
| 2026-05-07 23:47 | -34.65456 | -58.68487 | 5000 ft | 190 kts | 175° |
| 2026-05-07 23:47 | -34.66777 | -58.68293 | 5000 ft | 190 kts | 175° |
| 2026-05-07 23:47 | -34.68087 | -58.68101 | 5000 ft | 190 kts | 175° |
| 2026-05-07 23:47 | -34.69400 | -58.67908 | 5000 ft | 190 kts | 175° |
| 2026-05-07 23:48 | -34.70708 | -58.67717 | 5000 ft | 190 kts | 175° |
| 2026-05-07 23:48 | -34.72020 | -58.67525 | 5000 ft | 190 kts | 175° |
| 2026-05-07 23:48 | -34.73324 | -58.67334 | 5000 ft | 190 kts | 175° |
| 2026-05-07 23:48 | -34.73797 | -58.67265 | 5000 ft | 190 kts | 175° |
| 2026-05-07 23:49 | -34.74758 | -58.67125 | 5000 ft | 190 kts | 175° |
| 2026-05-07 23:49 | -34.76072 | -58.66933 | 5000 ft | 190 kts | 175° |
| 2026-05-07 23:50 | -34.77380 | -58.66742 | 5000 ft | 190 kts | 175° |
| 2026-05-07 23:50 | -34.78694 | -58.66550 | 5000 ft | 190 kts | 175° |
| 2026-05-07 23:50 | -34.80009 | -58.66358 | 5000 ft | 190 kts | 175° |
| 2026-05-07 23:50 | -34.81315 | -58.66168 | 5000 ft | 190 kts | 175° |
| 2026-05-07 23:51 | -34.82636 | -58.65976 | 5000 ft | 190 kts | 175° |
| 2026-05-07 23:51 | -34.83937 | -58.65787 | 5000 ft | 190 kts | 175° |
| 2026-05-07 23:51 | -34.85253 | -58.65595 | 5000 ft | 190 kts | 175° |
| 2026-05-07 23:51 | -34.86554 | -58.65406 | 5000 ft | 190 kts | 175° |
| 2026-05-07 23:52 | -34.87875 | -58.65215 | 5000 ft | 190 kts | 175° |
| 2026-05-07 23:52 | -34.89186 | -58.65021 | 5000 ft | 190 kts | 174° |
| 2026-05-07 23:52 | -34.90476 | -58.64672 | 5001 ft | 190 kts | 167° |
| 2026-05-07 23:52 | -34.91756 | -58.64235 | 5000 ft | 191 kts | 165° |
| 2026-05-07 23:53 | -34.93037 | -58.63781 | 5000 ft | 191 kts | 165° |
| 2026-05-07 23:53 | -34.94294 | -58.63333 | 5000 ft | 191 kts | 165° |
| 2026-05-07 23:53 | -34.95572 | -58.62877 | 5000 ft | 191 kts | 165° |
| 2026-05-07 23:53 | -34.96858 | -58.62418 | 5000 ft | 191 kts | 165° |
| 2026-05-07 23:54 | -34.97211 | -58.62292 | 5000 ft | 191 kts | 165° |
| 2026-05-07 23:54 | -34.97426 | -58.62215 | 5000 ft | 191 kts | 165° |
| 2026-05-07 23:54 | -34.98702 | -58.61760 | 5000 ft | 191 kts | 165° |
| 2026-05-07 23:55 | -34.99954 | -58.61262 | 5000 ft | 191 kts | 162° |
| 2026-05-07 23:55 | -35.01206 | -58.60714 | 5000 ft | 191 kts | 161° |
| 2026-05-07 23:55 | -35.02447 | -58.60161 | 5000 ft | 191 kts | 161° |
| 2026-05-07 23:55 | -35.03709 | -58.59598 | 5000 ft | 191 kts | 161° |
| 2026-05-07 23:56 | -35.04953 | -58.59042 | 5000 ft | 191 kts | 161° |
| 2026-05-07 23:56 | -35.05677 | -58.58709 | 5000 ft | 191 kts | 160° |
| 2026-05-07 23:57 | -35.06128 | -58.58494 | 5000 ft | 191 kts | 160° |
| 2026-05-07 23:57 | -35.07359 | -58.57893 | 5000 ft | 191 kts | 159° |
| 2026-05-07 23:57 | -35.08613 | -58.57275 | 5000 ft | 191 kts | 159° |
| 2026-05-07 23:58 | -35.09843 | -58.56669 | 5000 ft | 191 kts | 159° |
| 2026-05-07 23:58 | -35.11077 | -58.56060 | 5000 ft | 191 kts | 159° |
| 2026-05-07 23:58 | -35.12317 | -58.55448 | 5000 ft | 191 kts | 159° |
| 2026-05-07 23:58 | -35.13140 | -58.55042 | 5000 ft | 191 kts | 159° |
| 2026-05-07 23:59 | -35.14364 | -58.54438 | 5000 ft | 191 kts | 159° |
| 2026-05-07 23:59 | -35.16007 | -58.53628 | 5000 ft | 191 kts | 159° |
| 2026-05-07 23:59 | -35.16842 | -58.53215 | 5000 ft | 191 kts | 159° |
| 2026-05-07 23:59 | -35.18474 | -58.52410 | 5000 ft | 191 kts | 159° |
| 2026-05-08 00:00 | -35.19708 | -58.51801 | 5000 ft | 191 kts | 159° |
| 2026-05-08 00:00 | -35.20541 | -58.51390 | 5000 ft | 191 kts | 159° |
| 2026-05-08 00:00 | -35.21775 | -58.50780 | 5000 ft | 191 kts | 159° |
| 2026-05-08 00:00 | -35.23003 | -58.50174 | 5000 ft | 191 kts | 159° |
| 2026-05-08 00:01 | -35.24239 | -58.49564 | 5000 ft | 191 kts | 159° |
| 2026-05-08 00:01 | -35.25470 | -58.48938 | 4998 ft | 192 kts | 155° |
| 2026-05-08 00:01 | -35.26418 | -58.47809 | 4996 ft | 191 kts | 117° |
| 2026-05-08 00:01 | -35.26670 | -58.46253 | 5012 ft | 188 kts | 88° |
| 2026-05-08 00:02 | -35.26286 | -58.44755 | 5008 ft | 183 kts | 54° |
| 2026-05-08 00:02 | -35.25359 | -58.43774 | 5015 ft | 178 kts | 28° |
| 2026-05-08 00:02 | -35.24258 | -58.43054 | 5005 ft | 178 kts | 23° |
| 2026-05-08 00:02 | -35.23148 | -58.42395 | 5001 ft | 178 kts | 22° |
| 2026-05-08 00:03 | -35.22026 | -58.41739 | 5000 ft | 178 kts | 22° |
| 2026-05-08 00:03 | -35.20908 | -58.41089 | 5000 ft | 178 kts | 22° |
| 2026-05-08 00:03 | -35.20477 | -58.40839 | 5000 ft | 178 kts | 22° |
| 2026-05-08 00:04 | -35.20235 | -58.40698 | 5000 ft | 178 kts | 22° |
| 2026-05-08 00:04 | -35.19117 | -58.40050 | 5000 ft | 178 kts | 22° |
| 2026-05-08 00:04 | -35.17992 | -58.39397 | 5000 ft | 179 kts | 22° |
| 2026-05-08 00:04 | -35.16873 | -58.38749 | 5000 ft | 179 kts | 22° |
| 2026-05-08 00:05 | -35.15750 | -58.38098 | 5000 ft | 179 kts | 22° |
| 2026-05-08 00:05 | -35.14628 | -58.37448 | 5000 ft | 179 kts | 22° |
| 2026-05-08 00:05 | -35.13513 | -58.36803 | 4998 ft | 176 kts | 22° |
| 2026-05-08 00:05 | -35.12415 | -58.36166 | 4996 ft | 172 kts | 22° |
| 2026-05-08 00:06 | -35.11352 | -58.35549 | 4997 ft | 169 kts | 22° |
| 2026-05-08 00:06 | -35.10289 | -58.34930 | 4997 ft | 167 kts | 22° |
| 2026-05-08 00:06 | -35.09256 | -58.34328 | 4998 ft | 166 kts | 22° |
| 2026-05-08 00:06 | -35.08221 | -58.33725 | 4999 ft | 164 kts | 22° |
| 2026-05-08 00:07 | -35.07193 | -58.33124 | 4995 ft | 160 kts | 22° |
| 2026-05-08 00:07 | -35.07125 | -58.33084 | 4995 ft | 159 kts | 22° |